Time;durP1;ratioP1;P1;durP2;ratioP2;P2;SDS_P1;SDS_P2;PMS_P1;PMS_P2;Temp;Humidity;BMP_temperature;BMP_pressure;BME280_temperature;BME280_humidity;BME280_pressure;Samples;Min_cycle;Max_cycle;Signal;HPM_P1;HPM_P2
2023/08/15 00:02:13;;;;;;;11.35;6.85;;;;;;;;;;5069948;28;20044;-70
2023/08/15 00:04:39;;;;;;;12.88;6.97;;;;;;;;;;5071553;28;20056;-70
2023/08/15 00:07:04;;;;;;;12.48;6.80;;;;;;;;;;5071361;28;20021;-70
2023/08/15 00:09:30;;;;;;;15.57;7.22;;;;;;;;;;5071369;28;20024;-70
2023/08/15 00:11:55;;;;;;;12.38;6.90;;;;;;;;;;5072287;28;20089;-70
2023/08/15 00:14:20;;;;;;;13.52;7.10;;;;;;;;;;5069763;28;20032;-70
2023/08/15 00:16:45;;;;;;;14.18;7.03;;;;;;;;;;5071358;28;20024;-71
2023/08/15 00:19:11;;;;;;;15.02;7.05;;;;;;;;;;5069507;28;20100;-71
2023/08/15 00:21:36;;;;;;;15.43;7.35;;;;;;;;;;5072261;28;20016;-71
2023/08/15 00:24:01;;;;;;;14.50;6.75;;;;;;;;;;5070842;28;20024;-70
2023/08/15 00:26:26;;;;;;;12.18;6.80;;;;;;;;;;5071685;28;20023;-70
2023/08/15 00:28:52;;;;;;;15.23;6.82;;;;;;;;;;5070516;28;20488;-70
2023/08/15 00:31:17;;;;;;;14.45;7.32;;;;;;;;;;5069463;28;20432;-71
2023/08/15 00:33:42;;;;;;;39.55;8.73;;;;;;;;;;5073013;28;20032;-70
2023/08/15 00:36:08;;;;;;;11.20;7.45;;;;;;;;;;5073095;28;20713;-71
2023/08/15 00:38:33;;;;;;;11.50;7.53;;;;;;;;;;5071944;28;20032;-70
2023/08/15 00:40:58;;;;;;;13.65;7.85;;;;;;;;;;5070705;28;20123;-70
2023/08/15 00:43:23;;;;;;;14.32;7.40;;;;;;;;;;5069986;28;20033;-70
2023/08/15 00:45:49;;;;;;;14.30;7.18;;;;;;;;;;5072259;28;20039;-70
2023/08/15 00:48:15;;;;;;;15.57;8.27;;;;;;;;;;5070746;28;20029;-70
2023/08/15 00:50:41;;;;;;;16.75;7.60;;;;;;;;;;5072036;28;20024;-70
2023/08/15 00:53:07;;;;;;;11.65;6.93;;;;;;;;;;5069999;28;20059;-70
2023/08/15 00:55:33;;;;;;;10.43;6.65;;;;;;;;;;5070107;28;20056;-67
2023/08/15 00:57:58;;;;;;;15.45;7.93;;;;;;;;;;5070538;28;20026;-67
2023/08/15 01:03:26;;;;;;;13.20;7.78;;;;;;;;;;5068360;28;20034;-70
2023/08/15 01:05:52;;;;;;;14.68;7.43;;;;;;;;;;5070009;28;20450;-70
2023/08/15 01:08:17;;;;;;;15.73;8.75;;;;;;;;;;5071447;28;20043;-70
2023/08/15 01:10:43;;;;;;;15.77;8.35;;;;;;;;;;5053156;28;20053;-70
2023/08/15 01:13:22;;;;;;;17.17;8.80;;;;;;;;;;5072322;28;20032;-70
2023/08/15 01:15:49;;;;;;;14.20;7.95;;;;;;;;;;5071562;28;20021;-70
2023/08/15 01:18:17;;;;;;;13.38;7.75;;;;;;;;;;5059356;28;20028;-70
2023/08/15 01:20:42;;;;;;;14.07;8.38;;;;;;;;;;5072185;28;20484;-70
2023/08/15 01:23:08;;;;;;;16.63;8.43;;;;;;;;;;5071219;28;20059;-70
2023/08/15 01:25:40;;;;;;;16.10;8.02;;;;;;;;;;5072538;28;20031;-70
2023/08/15 01:28:06;;;;;;;14.60;7.82;;;;;;;;;;5070509;28;20353;-70
2023/08/15 01:30:31;;;;;;;15.70;8.35;;;;;;;;;;5070950;28;20031;-70
2023/08/15 01:33:05;;;;;;;15.23;9.02;;;;;;;;;;5071359;28;20020;-70
2023/08/15 01:35:33;;;;;;;14.60;9.80;;;;;;;;;;5071637;28;20508;-70
2023/08/15 01:38:02;;;;;;;14.50;9.35;;;;;;;;;;5076920;28;20043;-70
2023/08/15 01:40:29;;;;;;;17.50;10.30;;;;;;;;;;5071045;28;20031;-70
2023/08/15 01:42:57;;;;;;;16.25;9.88;;;;;;;;;;5072203;28;20503;-70
2023/08/15 01:45:23;;;;;;;15.68;9.57;;;;;;;;;;5069430;28;20384;-70
2023/08/15 01:47:49;;;;;;;19.15;11.43;;;;;;;;;;5072072;28;20025;-70
2023/08/15 01:50:14;;;;;;;19.48;10.90;;;;;;;;;;5070229;28;20028;-69
2023/08/15 01:52:40;;;;;;;16.25;10.63;;;;;;;;;;5071232;28;20032;-70
2023/08/15 01:55:05;;;;;;;18.98;11.15;;;;;;;;;;5071868;28;20342;-70
2023/08/15 01:57:30;;;;;;;21.20;11.50;;;;;;;;;;5070655;28;20040;-70
2023/08/15 01:59:56;;;;;;;17.33;10.48;;;;;;;;;;5070912;28;20082;-70
2023/08/15 02:02:21;;;;;;;14.32;9.57;;;;;;;;;;5071090;28;20125;-70
2023/08/15 02:04:46;;;;;;;18.33;10.10;;;;;;;;;;5070572;28;20477;-70
2023/08/15 02:07:11;;;;;;;17.13;11.05;;;;;;;;;;5070702;28;20411;-70
2023/08/15 02:09:36;;;;;;;19.40;10.80;;;;;;;;;;5069883;28;20361;-70
2023/08/15 02:12:02;;;;;;;15.90;9.43;;;;;;;;;;5070624;28;20032;-70
2023/08/15 02:14:27;;;;;;;17.23;10.38;;;;;;;;;;5070469;28;20082;-70
2023/08/15 02:16:52;;;;;;;18.33;9.85;;;;;;;;;;5070791;28;20033;-70
2023/08/15 02:19:17;;;;;;;14.52;8.57;;;;;;;;;;5071677;28;20042;-70
2023/08/15 02:21:43;;;;;;;14.45;9.25;;;;;;;;;;5072863;28;20446;-70
2023/08/15 02:24:08;;;;;;;21.13;9.82;;;;;;;;;;5074404;28;20373;-70
2023/08/15 02:26:35;;;;;;;16.02;9.82;;;;;;;;;;5074947;28;20409;-70
2023/08/15 02:29:01;;;;;;;23.17;10.18;;;;;;;;;;5074110;28;20029;-70
2023/08/15 02:31:26;;;;;;;17.83;11.20;;;;;;;;;;5075582;28;20109;-70
2023/08/15 02:33:51;;;;;;;17.23;11.50;;;;;;;;;;5074612;28;20461;-70
2023/08/15 02:36:16;;;;;;;20.45;12.57;;;;;;;;;;5074504;28;20346;-70
2023/08/15 02:38:41;;;;;;;19.55;12.30;;;;;;;;;;5071631;28;20385;-70
2023/08/15 02:41:07;;;;;;;19.00;12.07;;;;;;;;;;5073320;28;20382;-70
2023/08/15 02:43:32;;;;;;;23.10;13.13;;;;;;;;;;5075063;28;20388;-70
2023/08/15 02:45:57;;;;;;;21.52;12.93;;;;;;;;;;5075248;28;20518;-70
2023/08/15 02:48:23;;;;;;;18.48;12.50;;;;;;;;;;5075191;28;20016;-70
2023/08/15 02:50:48;;;;;;;20.52;11.80;;;;;;;;;;5075017;28;20113;-70
2023/08/15 02:53:13;;;;;;;23.80;13.02;;;;;;;;;;5074809;28;20025;-70
2023/08/15 02:55:38;;;;;;;23.08;14.02;;;;;;;;;;5075159;28;20031;-70
2023/08/15 02:58:04;;;;;;;27.13;15.52;;;;;;;;;;5074868;28;20432;-70
2023/08/15 03:00:29;;;;;;;28.50;16.10;;;;;;;;;;5075122;28;20447;-70
2023/08/15 03:02:55;;;;;;;25.45;16.77;;;;;;;;;;5072927;28;20052;-70
2023/08/15 03:05:20;;;;;;;25.55;16.27;;;;;;;;;;5060079;28;20409;-70
2023/08/15 03:07:45;;;;;;;25.67;16.63;;;;;;;;;;5054586;28;20067;-69
2023/08/15 03:10:10;;;;;;;28.80;18.38;;;;;;;;;;5054336;28;20051;-70
2023/08/15 03:12:36;;;;;;;25.00;16.70;;;;;;;;;;5055198;28;20037;-69
2023/08/15 03:15:01;;;;;;;30.58;18.40;;;;;;;;;;5054614;28;20031;-69
2023/08/15 03:17:26;;;;;;;33.53;20.25;;;;;;;;;;5060164;28;20029;-69
2023/08/15 03:19:55;;;;;;;41.22;22.83;;;;;;;;;;5054459;28;20033;-69
2023/08/15 03:22:20;;;;;;;38.92;24.52;;;;;;;;;;5054644;28;20389;-69
2023/08/15 03:24:45;;;;;;;40.65;24.42;;;;;;;;;;5054368;28;20025;-69
2023/08/15 03:27:10;;;;;;;45.42;25.88;;;;;;;;;;5054711;28;20036;-67
2023/08/15 03:29:36;;;;;;;47.38;27.52;;;;;;;;;;5052057;28;20057;-66
2023/08/15 03:32:01;;;;;;;51.83;27.73;;;;;;;;;;5056421;28;20028;-66
2023/08/15 03:34:26;;;;;;;52.72;27.08;;;;;;;;;;5054753;28;20469;-67
2023/08/15 03:36:51;;;;;;;58.22;28.00;;;;;;;;;;5055976;28;20028;-66
2023/08/15 03:39:17;;;;;;;51.90;27.20;;;;;;;;;;5056096;28;20017;-66
2023/08/15 03:41:42;;;;;;;48.55;27.35;;;;;;;;;;5055742;28;20056;-66
2023/08/15 03:44:07;;;;;;;50.30;27.75;;;;;;;;;;5056472;28;20106;-66
2023/08/15 03:46:32;;;;;;;54.08;28.88;;;;;;;;;;5054565;28;20457;-67
2023/08/15 03:48:58;;;;;;;51.53;27.35;;;;;;;;;;5053793;28;20067;-66
2023/08/15 03:51:23;;;;;;;55.67;28.08;;;;;;;;;;5054376;28;20021;-66
2023/08/15 03:53:48;;;;;;;46.13;26.33;;;;;;;;;;5053984;28;20021;-66
2023/08/15 03:56:13;;;;;;;52.25;29.35;;;;;;;;;;5053808;28;20409;-66
2023/08/15 03:58:39;;;;;;;56.95;29.73;;;;;;;;;;5053874;28;20063;-66
2023/08/15 04:01:04;;;;;;;59.10;30.50;;;;;;;;;;5053655;28;20037;-66
2023/08/15 04:03:29;;;;;;;53.72;27.77;;;;;;;;;;5056248;28;20106;-66
2023/08/15 04:05:55;;;;;;;55.28;30.70;;;;;;;;;;5073813;28;20490;-66
2023/08/15 04:08:20;;;;;;;61.15;31.52;;;;;;;;;;5073872;28;20012;-66
2023/08/15 04:10:46;;;;;;;45.67;27.08;;;;;;;;;;5072916;28;20035;-67
2023/08/15 04:13:12;;;;;;;48.08;26.73;;;;;;;;;;5073833;28;20029;-66
2023/08/15 04:15:37;;;;;;;40.97;24.88;;;;;;;;;;5073036;28;20032;-67
2023/08/15 04:18:04;;;;;;;39.45;22.48;;;;;;;;;;5073444;28;20111;-66
2023/08/15 04:20:29;;;;;;;38.72;23.40;;;;;;;;;;5071894;28;20025;-67
2023/08/15 04:22:55;;;;;;;41.35;23.50;;;;;;;;;;5072983;28;20020;-66
2023/08/15 04:25:20;;;;;;;45.67;23.90;;;;;;;;;;5073021;28;20066;-66
2023/08/15 04:27:45;;;;;;;42.75;24.08;;;;;;;;;;5073258;28;20040;-66
2023/08/15 04:30:11;;;;;;;42.00;23.23;;;;;;;;;;5072142;28;20031;-66
2023/08/15 04:32:36;;;;;;;39.97;21.70;;;;;;;;;;5073129;28;20515;-67
2023/08/15 04:35:02;;;;;;;36.70;20.83;;;;;;;;;;5072586;28;20043;-67
2023/08/15 04:37:27;;;;;;;33.28;20.05;;;;;;;;;;5073279;28;20028;-69
2023/08/15 04:39:52;;;;;;;32.65;19.02;;;;;;;;;;5073165;28;20050;-69
2023/08/15 04:42:18;;;;;;;27.08;18.08;;;;;;;;;;5072845;28;20019;-69
2023/08/15 04:44:43;;;;;;;24.98;17.13;;;;;;;;;;5071009;28;20035;-69
2023/08/15 04:47:08;;;;;;;30.67;16.98;;;;;;;;;;5069760;28;20029;-69
2023/08/15 04:49:33;;;;;;;27.30;16.15;;;;;;;;;;5070993;28;20028;-69
2023/08/15 04:51:59;;;;;;;24.27;16.00;;;;;;;;;;5072548;28;20012;-69
2023/08/15 04:54:24;;;;;;;24.90;16.10;;;;;;;;;;5072976;28;20020;-69
2023/08/15 04:56:49;;;;;;;24.45;16.20;;;;;;;;;;5071980;28;20025;-69
2023/08/15 04:59:15;;;;;;;23.98;16.10;;;;;;;;;;5072834;28;20020;-70
2023/08/15 05:01:40;;;;;;;23.20;14.68;;;;;;;;;;5069634;28;20028;-70
2023/08/15 05:04:05;;;;;;;22.45;14.20;;;;;;;;;;5069469;28;20041;-70
2023/08/15 05:06:32;;;;;;;21.23;13.50;;;;;;;;;;5068378;28;20020;-70
2023/08/15 05:08:57;;;;;;;21.40;13.40;;;;;;;;;;5071183;28;20029;-70
2023/08/15 05:11:22;;;;;;;18.60;12.82;;;;;;;;;;5071549;28;20035;-70
2023/08/15 05:13:47;;;;;;;18.38;13.00;;;;;;;;;;5071110;28;20029;-70
2023/08/15 05:16:14;;;;;;;18.92;12.27;;;;;;;;;;5071284;28;20416;-69
2023/08/15 05:18:39;;;;;;;18.45;12.05;;;;;;;;;;5068228;28;20039;-71
2023/08/15 05:21:04;;;;;;;17.95;11.52;;;;;;;;;;5067108;28;20442;-70
2023/08/15 05:23:30;;;;;;;16.02;11.63;;;;;;;;;;5072259;28;20021;-70
2023/08/15 05:25:55;;;;;;;18.70;11.60;;;;;;;;;;5071609;28;20024;-70
2023/08/15 05:28:20;;;;;;;18.20;11.82;;;;;;;;;;5071986;28;20025;-70
2023/08/15 05:30:46;;;;;;;17.48;11.40;;;;;;;;;;5076053;28;20453;-70
2023/08/15 05:33:11;;;;;;;17.83;11.65;;;;;;;;;;5071435;28;20074;-70
2023/08/15 05:35:36;;;;;;;15.93;11.40;;;;;;;;;;5053502;28;20028;-71
2023/08/15 05:38:01;;;;;;;18.55;12.85;;;;;;;;;;5072114;28;20051;-70
2023/08/15 05:40:27;;;;;;;17.08;11.32;;;;;;;;;;5071885;28;20019;-70
2023/08/15 05:42:52;;;;;;;17.10;11.07;;;;;;;;;;5073598;28;20025;-70
2023/08/15 05:45:17;;;;;;;17.02;11.20;;;;;;;;;;5077841;28;20046;-70
2023/08/15 05:47:42;;;;;;;17.20;10.98;;;;;;;;;;5071739;28;20025;-70
2023/08/15 05:50:08;;;;;;;17.90;11.95;;;;;;;;;;5072053;28;20107;-70
2023/08/15 05:52:33;;;;;;;18.00;11.05;;;;;;;;;;5072129;28;20033;-70
2023/08/15 05:54:59;;;;;;;18.60;11.10;;;;;;;;;;5071087;28;20031;-70
2023/08/15 05:57:24;;;;;;;20.95;11.30;;;;;;;;;;5071555;28;20020;-70
2023/08/15 05:59:49;;;;;;;13.80;10.57;;;;;;;;;;5071643;28;20024;-70
2023/08/15 06:02:14;;;;;;;19.35;10.45;;;;;;;;;;5071477;28;20075;-70
2023/08/15 06:04:40;;;;;;;14.32;10.25;;;;;;;;;;5071519;28;20132;-71
2023/08/15 06:07:06;;;;;;;16.75;10.35;;;;;;;;;;5071638;28;20017;-71
2023/08/15 06:09:31;;;;;;;13.82;9.85;;;;;;;;;;5071960;28;20032;-71
2023/08/15 06:11:56;;;;;;;14.20;10.65;;;;;;;;;;5071976;28;20024;-70
2023/08/15 06:14:21;;;;;;;16.40;10.70;;;;;;;;;;5068875;28;20103;-72
2023/08/15 06:16:47;;;;;;;17.27;10.63;;;;;;;;;;5071241;28;20063;-71
2023/08/15 06:19:12;;;;;;;17.80;11.40;;;;;;;;;;5068890;28;20029;-71
2023/08/15 06:21:41;;;;;;;18.80;11.93;;;;;;;;;;5071324;28;20032;-71
2023/08/15 06:24:06;;;;;;;20.70;11.75;;;;;;;;;;5071429;28;20016;-71
2023/08/15 06:26:32;;;;;;;15.23;11.35;;;;;;;;;;5071635;28;20100;-70
2023/08/15 06:28:57;;;;;;;17.33;11.90;;;;;;;;;;5071450;28;20476;-71
2023/08/15 06:31:22;;;;;;;15.63;11.05;;;;;;;;;;5069575;28;20056;-72
2023/08/15 06:33:47;;;;;;;15.90;10.88;;;;;;;;;;5071435;28;20012;-71
2023/08/15 06:36:13;;;;;;;18.67;11.68;;;;;;;;;;5071339;28;20038;-71
2023/08/15 06:38:38;;;;;;;15.90;10.52;;;;;;;;;;5071653;28;20021;-72
2023/08/15 06:41:03;;;;;;;14.85;11.02;;;;;;;;;;5071308;28;20020;-72
2023/08/15 06:43:28;;;;;;;18.23;11.75;;;;;;;;;;5071374;28;20099;-72
2023/08/15 06:45:54;;;;;;;19.10;11.95;;;;;;;;;;5071257;28;20024;-72
2023/08/15 06:48:19;;;;;;;16.38;11.45;;;;;;;;;;5071291;28;20016;-71
2023/08/15 06:50:44;;;;;;;15.13;10.98;;;;;;;;;;5071216;28;20013;-71
2023/08/15 06:53:09;;;;;;;17.17;11.07;;;;;;;;;;5071466;28;20036;-71
2023/08/15 06:55:35;;;;;;;15.55;11.43;;;;;;;;;;5071177;28;20089;-70
2023/08/15 06:58:01;;;;;;;16.30;11.40;;;;;;;;;;5071513;28;20025;-67
2023/08/15 07:00:26;;;;;;;15.88;11.20;;;;;;;;;;5071438;28;20040;-66
2023/08/15 07:02:51;;;;;;;20.13;11.35;;;;;;;;;;5071321;28;20503;-67
2023/08/15 07:05:17;;;;;;;18.23;10.32;;;;;;;;;;5069708;28;20041;-66
2023/08/15 07:07:42;;;;;;;15.00;10.38;;;;;;;;;;5070789;28;20017;-69
2023/08/15 07:10:07;;;;;;;12.93;9.07;;;;;;;;;;5074918;28;20017;-65
2023/08/15 07:12:33;;;;;;;15.20;8.90;;;;;;;;;;5074222;28;20024;-65
2023/08/15 07:14:58;;;;;;;13.73;8.60;;;;;;;;;;5074611;28;20031;-65
2023/08/15 07:17:23;;;;;;;17.13;8.32;;;;;;;;;;5074444;28;20026;-65
2023/08/15 07:19:49;;;;;;;13.88;8.23;;;;;;;;;;5074867;28;20028;-71
2023/08/15 07:22:14;;;;;;;14.23;7.95;;;;;;;;;;5073901;28;20016;-70
2023/08/15 07:24:40;;;;;;;12.05;7.60;;;;;;;;;;5074686;28;20025;-70
2023/08/15 07:27:05;;;;;;;13.55;7.60;;;;;;;;;;5073792;28;20526;-70
2023/08/15 07:29:30;;;;;;;10.65;7.90;;;;;;;;;;5074014;28;20021;-71
2023/08/15 07:31:55;;;;;;;11.90;8.18;;;;;;;;;;5073238;28;20020;-70
2023/08/15 07:34:21;;;;;;;11.05;8.13;;;;;;;;;;5073541;28;20074;-70
2023/08/15 07:36:46;;;;;;;13.85;8.00;;;;;;;;;;5073031;28;20103;-70
2023/08/15 07:39:11;;;;;;;11.85;8.75;;;;;;;;;;5076353;28;20028;-70
2023/08/15 07:41:36;;;;;;;11.68;8.55;;;;;;;;;;5074412;28;20096;-70
2023/08/15 07:44:02;;;;;;;17.80;9.38;;;;;;;;;;5073337;28;20024;-69
2023/08/15 07:46:27;;;;;;;12.98;8.68;;;;;;;;;;5076190;28;20035;-69
2023/08/15 07:48:54;;;;;;;14.52;8.50;;;;;;;;;;5074109;28;20074;-69
2023/08/15 07:51:19;;;;;;;11.35;8.07;;;;;;;;;;5073756;28;20028;-68
2023/08/15 07:53:44;;;;;;;16.75;8.07;;;;;;;;;;5073574;28;20020;-68
2023/08/15 07:56:10;;;;;;;14.43;7.70;;;;;;;;;;5073070;28;20082;-67
2023/08/15 07:58:35;;;;;;;11.70;8.10;;;;;;;;;;5073725;28;20461;-67
2023/08/15 08:01:01;;;;;;;11.98;6.78;;;;;;;;;;5073617;28;20101;-68
2023/08/15 08:03:26;;;;;;;11.80;7.45;;;;;;;;;;5073273;28;20023;-67
2023/08/15 08:05:51;;;;;;;11.18;7.43;;;;;;;;;;5073587;28;20353;-67
2023/08/15 08:08:17;;;;;;;9.98;6.90;;;;;;;;;;5072290;28;20419;-68
2023/08/15 08:10:42;;;;;;;12.40;8.00;;;;;;;;;;5073491;28;20369;-67
2023/08/15 08:13:11;;;;;;;15.15;8.50;;;;;;;;;;5073413;28;20028;-67
2023/08/15 08:15:37;;;;;;;12.20;8.05;;;;;;;;;;5072360;28;20048;-67
2023/08/15 08:18:02;;;;;;;12.38;7.85;;;;;;;;;;5072921;28;20078;-67
2023/08/15 08:20:29;;;;;;;15.70;8.68;;;;;;;;;;5072534;28;20098;-68
2023/08/15 08:22:54;;;;;;;11.18;8.13;;;;;;;;;;5072822;28;20093;-68
2023/08/15 08:25:22;;;;;;;12.55;8.23;;;;;;;;;;5072319;28;20045;-69
2023/08/15 08:27:48;;;;;;;12.27;8.50;;;;;;;;;;5073517;28;20015;-69
2023/08/15 08:30:15;;;;;;;13.57;9.27;;;;;;;;;;5072692;28;20017;-68
2023/08/15 08:32:41;;;;;;;17.40;9.65;;;;;;;;;;5073157;28;20484;-66
2023/08/15 08:35:06;;;;;;;15.85;9.32;;;;;;;;;;5072877;28;20024;-66
2023/08/15 08:37:32;;;;;;;15.23;9.90;;;;;;;;;;5072965;28;20025;-67
2023/08/15 08:39:57;;;;;;;14.27;8.45;;;;;;;;;;5070238;28;20020;-70
2023/08/15 08:42:23;;;;;;;14.63;8.80;;;;;;;;;;5072522;28;20095;-68
2023/08/15 08:44:48;;;;;;;13.82;8.73;;;;;;;;;;5073107;28;20009;-66
2023/08/15 08:47:14;;;;;;;12.45;7.78;;;;;;;;;;5072797;28;20481;-66
2023/08/15 08:49:40;;;;;;;10.57;7.35;;;;;;;;;;5072451;28;20012;-66
2023/08/15 08:52:08;;;;;;;12.35;6.88;;;;;;;;;;5072734;28;20464;-66
2023/08/15 08:54:33;;;;;;;11.98;7.20;;;;;;;;;;5072900;28;20016;-67
2023/08/15 08:57:00;;;;;;;11.20;6.90;;;;;;;;;;5072200;28;20020;-68
2023/08/15 08:59:27;;;;;;;10.35;6.68;;;;;;;;;;5072409;28;20496;-67
2023/08/15 09:01:53;;;;;;;11.18;6.75;;;;;;;;;;5071949;28;20028;-68
2023/08/15 09:04:20;;;;;;;11.50;6.80;;;;;;;;;;5072109;28;20047;-68
2023/08/15 09:06:45;;;;;;;10.70;6.40;;;;;;;;;;5070620;28;20029;-66
2023/08/15 09:09:10;;;;;;;12.57;5.70;;;;;;;;;;5070880;28;20416;-67
2023/08/15 09:11:36;;;;;;;12.02;5.93;;;;;;;;;;5071973;28;20081;-66
2023/08/15 09:14:03;;;;;;;11.02;6.00;;;;;;;;;;5071586;28;20052;-66
2023/08/15 09:16:28;;;;;;;12.55;6.00;;;;;;;;;;5072218;28;20463;-66
2023/08/15 09:18:54;;;;;;;11.45;6.65;;;;;;;;;;5072457;28;20048;-67
2023/08/15 09:21:19;;;;;;;10.32;6.25;;;;;;;;;;5071849;28;20020;-66
2023/08/15 09:23:44;;;;;;;9.75;4.28;;;;;;;;;;5071617;28;20020;-66
2023/08/15 09:26:13;;;;;;;10.98;4.85;;;;;;;;;;5072357;28;20021;-66
2023/08/15 09:28:41;;;;;;;9.75;4.10;;;;;;;;;;5071930;28;20017;-66
2023/08/15 09:31:07;;;;;;;8.57;3.47;;;;;;;;;;5071739;28;20468;-66
2023/08/15 09:33:34;;;;;;;10.07;3.78;;;;;;;;;;5072282;28;20031;-66
2023/08/15 09:36:03;;;;;;;7.53;3.50;;;;;;;;;;5071694;28;20074;-66
2023/08/15 09:38:28;;;;;;;8.57;3.22;;;;;;;;;;5071687;28;20017;-66
2023/08/15 09:40:55;;;;;;;11.07;3.42;;;;;;;;;;5078145;28;20476;-66
2023/08/15 09:43:20;;;;;;;7.03;3.05;;;;;;;;;;5071635;28;20021;-66
2023/08/15 09:45:46;;;;;;;10.95;4.00;;;;;;;;;;5071608;28;20346;-66
2023/08/15 09:48:11;;;;;;;7.55;3.20;;;;;;;;;;5074019;28;20443;-66
2023/08/15 09:50:37;;;;;;;8.35;3.20;;;;;;;;;;5074698;28;20427;-65
2023/08/15 09:53:04;;;;;;;5.70;2.30;;;;;;;;;;5069956;28;20033;-66
2023/08/15 09:55:30;;;;;;;6.30;2.25;;;;;;;;;;5058484;28;20081;-66
2023/08/15 09:57:55;;;;;;;9.35;2.30;;;;;;;;;;5071193;28;20028;-65
2023/08/15 10:00:20;;;;;;;7.75;2.10;;;;;;;;;;5071676;28;20050;-62
2023/08/15 10:02:55;;;;;;;5.38;2.13;;;;;;;;;;5070072;28;20437;-62
2023/08/15 10:05:21;;;;;;;7.53;2.42;;;;;;;;;;5070731;28;20041;-61
2023/08/15 10:07:46;;;;;;;7.47;2.42;;;;;;;;;;5069859;28;20380;-61
2023/08/15 10:10:13;;;;;;;5.50;2.15;;;;;;;;;;5070990;28;20095;-62
2023/08/15 10:12:39;;;;;;;5.97;2.00;;;;;;;;;;5067010;28;20066;-62
2023/08/15 10:15:06;;;;;;;5.10;1.65;;;;;;;;;;5071154;28;20020;-61
2023/08/15 10:17:31;;;;;;;6.65;1.73;;;;;;;;;;5070672;28;20024;-61
2023/08/15 10:20:06;;;;;;;5.43;1.77;;;;;;;;;;5071080;28;20021;-62
2023/08/15 10:22:34;;;;;;;5.70;1.98;;;;;;;;;;5071038;28;20473;-62
2023/08/15 10:25:17;;;;;;;4.38;1.50;;;;;;;;;;5070672;28;20146;-61
2023/08/15 10:27:45;;;;;;;7.68;1.77;;;;;;;;;;5071116;28;20047;-61
2023/08/15 10:30:25;;;;;;;4.45;1.65;;;;;;;;;;5070648;28;20429;-61
2023/08/15 10:32:51;;;;;;;5.10;1.85;;;;;;;;;;5067257;28;20472;-61
2023/08/15 10:35:23;;;;;;;6.25;1.67;;;;;;;;;;5070856;28;20051;-62
2023/08/15 10:37:48;;;;;;;4.75;1.42;;;;;;;;;;5070911;28;20376;-61
2023/08/15 10:40:14;;;;;;;2.93;1.10;;;;;;;;;;5070932;28;20017;-62
2023/08/15 10:42:57;;;;;;;3.70;1.10;;;;;;;;;;5072958;28;20275;-62
2023/08/15 10:45:23;;;;;;;3.83;1.20;;;;;;;;;;5074477;28;20051;-62
2023/08/15 10:47:48;;;;;;;4.40;1.30;;;;;;;;;;5072806;28;20044;-62
2023/08/15 10:50:13;;;;;;;3.03;1.10;;;;;;;;;;5074484;28;20020;-61
2023/08/15 10:52:39;;;;;;;4.28;1.13;;;;;;;;;;5074580;28;20016;-63
2023/08/15 10:55:05;;;;;;;4.47;1.40;;;;;;;;;;5074620;28;20364;-61
2023/08/15 10:57:31;;;;;;;5.00;1.33;;;;;;;;;;5074312;28;20044;-62
2023/08/15 10:59:57;;;;;;;3.78;1.05;;;;;;;;;;5073991;28;20019;-62
2023/08/15 11:02:22;;;;;;;4.55;1.30;;;;;;;;;;5071610;28;20033;-62
2023/08/15 11:04:48;;;;;;;4.20;1.20;;;;;;;;;;5073984;28;20047;-62
2023/08/15 11:07:23;;;;;;;4.63;1.25;;;;;;;;;;5073955;28;20017;-63
2023/08/15 11:09:49;;;;;;;5.38;1.10;;;;;;;;;;5074333;28;20480;-63
2023/08/15 11:12:15;;;;;;;6.20;1.30;;;;;;;;;;5073873;28;20131;-63
2023/08/15 11:14:40;;;;;;;4.10;1.20;;;;;;;;;;5073858;28;20103;-63
2023/08/15 11:17:06;;;;;;;4.03;1.65;;;;;;;;;;5074055;28;20082;-64
2023/08/15 11:19:32;;;;;;;4.07;1.27;;;;;;;;;;5074099;28;20469;-64
2023/08/15 11:21:58;;;;;;;4.30;1.00;;;;;;;;;;5070856;28;20054;-64
2023/08/15 11:24:23;;;;;;;4.68;1.30;;;;;;;;;;5073989;28;20012;-64
2023/08/15 11:26:49;;;;;;;3.33;1.20;;;;;;;;;;5074045;28;20096;-64
2023/08/15 11:29:14;;;;;;;3.47;1.15;;;;;;;;;;5074236;28;20463;-65
2023/08/15 11:31:39;;;;;;;2.97;1.20;;;;;;;;;;5076943;28;20427;-66
2023/08/15 11:34:05;;;;;;;3.05;1.15;;;;;;;;;;5073801;28;20490;-65
2023/08/15 11:36:30;;;;;;;3.65;1.40;;;;;;;;;;5073503;28;20024;-67
2023/08/15 11:38:59;;;;;;;4.13;1.23;;;;;;;;;;5073859;28;20095;-65
2023/08/15 11:41:24;;;;;;;5.13;1.40;;;;;;;;;;5073819;28;20556;-63
2023/08/15 11:43:50;;;;;;;5.07;1.30;;;;;;;;;;5073103;28;20103;-64
2023/08/15 11:46:15;;;;;;;3.75;1.20;;;;;;;;;;5073471;28;20099;-64
2023/08/15 11:48:42;;;;;;;7.07;1.40;;;;;;;;;;5072997;28;20419;-63
2023/08/15 11:51:08;;;;;;;3.63;1.10;;;;;;;;;;5071573;28;20029;-63
2023/08/15 11:53:33;;;;;;;4.80;1.45;;;;;;;;;;5078230;28;20020;-63
2023/08/15 11:55:58;;;;;;;4.40;1.10;;;;;;;;;;5073515;28;20095;-63
2023/08/15 11:58:23;;;;;;;2.75;1.10;;;;;;;;;;5073183;28;20032;-65
2023/08/15 12:00:50;;;;;;;4.30;1.15;;;;;;;;;;5073200;28;20024;-63
2023/08/15 12:03:16;;;;;;;3.67;0.90;;;;;;;;;;5072791;28;20016;-62
2023/08/15 12:05:43;;;;;;;6.05;1.23;;;;;;;;;;5072847;28;20158;-62
2023/08/15 12:08:09;;;;;;;3.13;1.02;;;;;;;;;;5073156;28;20023;-63
2023/08/15 12:10:34;;;;;;;3.60;1.02;;;;;;;;;;5072184;28;20089;-63
2023/08/15 12:13:01;;;;;;;3.97;1.38;;;;;;;;;;5072761;28;20028;-62
2023/08/15 12:15:27;;;;;;;4.22;1.20;;;;;;;;;;5073325;28;20024;-61
2023/08/15 12:17:52;;;;;;;2.60;1.00;;;;;;;;;;5072805;28;20417;-62
2023/08/15 12:20:17;;;;;;;3.53;1.17;;;;;;;;;;5073061;28;20302;-66
2023/08/15 12:22:42;;;;;;;2.53;0.90;;;;;;;;;;5073259;28;20357;-65
2023/08/15 12:25:08;;;;;;;3.75;1.00;;;;;;;;;;5072961;28;20015;-67
2023/08/15 12:27:37;;;;;;;3.70;1.08;;;;;;;;;;5073559;28;20044;-66
2023/08/15 12:30:03;;;;;;;2.47;0.98;;;;;;;;;;5073436;28;20460;-66
2023/08/15 12:32:29;;;;;;;3.20;1.23;;;;;;;;;;5073817;28;20067;-66
2023/08/15 12:34:57;;;;;;;2.80;1.08;;;;;;;;;;5074337;28;20012;-66
2023/08/15 12:37:22;;;;;;;2.88;1.05;;;;;;;;;;5073806;28;20032;-66
2023/08/15 12:39:47;;;;;;;2.42;1.00;;;;;;;;;;5074145;28;20380;-67
2023/08/15 12:42:14;;;;;;;4.35;1.10;;;;;;;;;;5072276;28;20012;-65
2023/08/15 12:44:39;;;;;;;3.58;1.08;;;;;;;;;;5073704;28;20017;-67
2023/08/15 12:47:04;;;;;;;3.35;1.15;;;;;;;;;;5073523;28;20468;-66
2023/08/15 12:49:30;;;;;;;5.78;1.30;;;;;;;;;;5073184;28;20113;-67
2023/08/15 12:51:55;;;;;;;2.85;1.05;;;;;;;;;;5073892;28;20016;-67
2023/08/15 12:54:20;;;;;;;4.22;1.10;;;;;;;;;;5074543;28;20024;-67
2023/08/15 12:56:45;;;;;;;3.05;1.15;;;;;;;;;;5073806;28;20403;-66
2023/08/15 12:59:11;;;;;;;3.28;1.17;;;;;;;;;;5074592;28;20030;-66
2023/08/15 13:01:37;;;;;;;5.47;1.20;;;;;;;;;;5082136;28;20012;-66
2023/08/15 13:04:02;;;;;;;4.13;1.13;;;;;;;;;;5095993;28;20063;-65
2023/08/15 13:06:27;;;;;;;3.15;1.10;;;;;;;;;;5095270;28;20060;-66
2023/08/15 13:08:52;;;;;;;3.38;1.13;;;;;;;;;;5096744;28;20008;-66
2023/08/15 13:11:18;;;;;;;2.97;1.02;;;;;;;;;;5097629;28;20003;-66
2023/08/15 13:13:43;;;;;;;2.95;1.08;;;;;;;;;;5097603;28;20033;-67
2023/08/15 13:16:09;;;;;;;3.55;1.10;;;;;;;;;;5097843;28;20000;-67
2023/08/15 13:18:34;;;;;;;3.67;1.10;;;;;;;;;;5097854;28;20020;-66
2023/08/15 13:21:00;;;;;;;4.50;1.20;;;;;;;;;;5097386;28;20000;-65
2023/08/15 13:23:25;;;;;;;3.85;1.20;;;;;;;;;;5097532;28;20080;-66
2023/08/15 13:25:50;;;;;;;5.18;1.20;;;;;;;;;;5097319;28;20040;-67
2023/08/15 13:28:15;;;;;;;4.25;1.08;;;;;;;;;;5097489;28;20038;-66
2023/08/15 13:30:41;;;;;;;4.15;1.08;;;;;;;;;;5091469;28;20044;-67
2023/08/15 13:33:06;;;;;;;3.88;1.15;;;;;;;;;;5072069;28;20480;-66
2023/08/15 13:35:31;;;;;;;3.65;1.20;;;;;;;;;;5077224;28;20021;-65
2023/08/15 13:37:56;;;;;;;3.70;1.10;;;;;;;;;;5072534;28;20017;-65
2023/08/15 13:40:22;;;;;;;4.50;1.38;;;;;;;;;;5072892;28;20022;-67
2023/08/15 13:42:47;;;;;;;2.63;0.93;;;;;;;;;;5073299;28;20033;-68
2023/08/15 13:45:13;;;;;;;4.13;1.10;;;;;;;;;;5076804;28;20372;-68
2023/08/15 13:47:38;;;;;;;3.22;1.20;;;;;;;;;;5072929;28;20013;-69
2023/08/15 13:50:04;;;;;;;2.70;1.17;;;;;;;;;;5076934;28;20377;-70
2023/08/15 13:52:29;;;;;;;4.75;1.10;;;;;;;;;;5072744;28;20020;-69
2023/08/15 13:54:54;;;;;;;4.05;1.20;;;;;;;;;;5071890;28;20427;-67
2023/08/15 13:57:19;;;;;;;4.47;1.40;;;;;;;;;;5070264;28;20452;-68
2023/08/15 13:59:45;;;;;;;8.63;1.30;;;;;;;;;;5072770;28;20016;-67
2023/08/15 14:02:10;;;;;;;5.88;1.60;;;;;;;;;;5071249;28;20047;-66
2023/08/15 14:04:36;;;;;;;4.72;1.65;;;;;;;;;;5072186;28;20163;-67
2023/08/15 14:07:01;;;;;;;4.15;1.27;;;;;;;;;;5072958;28;20294;-67
2023/08/15 14:09:26;;;;;;;3.75;1.17;;;;;;;;;;5073344;28;20025;-67
2023/08/15 14:11:51;;;;;;;4.25;1.27;;;;;;;;;;5073078;28;20044;-67
2023/08/15 14:14:17;;;;;;;5.93;1.20;;;;;;;;;;5073052;28;20018;-66
2023/08/15 14:16:42;;;;;;;4.35;1.25;;;;;;;;;;5073945;28;20025;-67
2023/08/15 14:19:09;;;;;;;4.82;1.50;;;;;;;;;;5077464;28;20079;-66
2023/08/15 14:21:34;;;;;;;3.47;1.48;;;;;;;;;;5077721;28;20090;-66
2023/08/15 14:23:59;;;;;;;3.75;1.15;;;;;;;;;;5077359;28;20020;-66
2023/08/15 14:26:25;;;;;;;4.10;1.55;;;;;;;;;;5078555;28;20474;-66